sensor_id;sensor_type;location;lat;lon;timestamp;temperature;humidity
1614;DHT22;800;48.824;9.346;2023-03-01T00:01:49;6.60;45.30
1614;DHT22;800;48.824;9.346;2023-03-01T00:04:15;6.60;45.20
1614;DHT22;800;48.824;9.346;2023-03-01T00:06:42;6.60;45.30
1614;DHT22;800;48.824;9.346;2023-03-01T00:09:08;6.60;45.20
1614;DHT22;800;48.824;9.346;2023-03-01T00:11:34;6.60;45.20
1614;DHT22;800;48.824;9.346;2023-03-01T00:14:02;6.60;45.20
1614;DHT22;800;48.824;9.346;2023-03-01T00:16:33;6.50;45.00
1614;DHT22;800;48.824;9.346;2023-03-01T00:18:59;6.50;45.10
1614;DHT22;800;48.824;9.346;2023-03-01T00:21:25;6.50;45.20
1614;DHT22;800;48.824;9.346;2023-03-01T00:23:51;6.50;45.30
1614;DHT22;800;48.824;9.346;2023-03-01T00:26:18;6.50;45.40
1614;DHT22;800;48.824;9.346;2023-03-01T00:28:44;6.50;45.30
1614;DHT22;800;48.824;9.346;2023-03-01T00:31:13;6.50;45.40
1614;DHT22;800;48.824;9.346;2023-03-01T00:33:39;6.40;45.40
1614;DHT22;800;48.824;9.346;2023-03-01T00:36:05;6.40;45.50
1614;DHT22;800;48.824;9.346;2023-03-01T00:38:35;6.40;45.70
1614;DHT22;800;48.824;9.346;2023-03-01T00:41:10;6.40;45.60
1614;DHT22;800;48.824;9.346;2023-03-01T00:43:36;6.50;45.50
1614;DHT22;800;48.824;9.346;2023-03-01T00:46:12;6.50;45.50
1614;DHT22;800;48.824;9.346;2023-03-01T00:48:39;6.40;45.40
1614;DHT22;800;48.824;9.346;2023-03-01T00:51:21;6.40;45.30
1614;DHT22;800;48.824;9.346;2023-03-01T00:53:47;6.40;45.30
1614;DHT22;800;48.824;9.346;2023-03-01T00:56:15;6.40;45.60
1614;DHT22;800;48.824;9.346;2023-03-01T00:58:41;6.40;45.70
1614;DHT22;800;48.824;9.346;2023-03-01T01:01:19;6.30;45.60
1614;DHT22;800;48.824;9.346;2023-03-01T01:03:47;6.30;45.60
1614;DHT22;800;48.824;9.346;2023-03-01T01:06:19;6.30;45.60
1614;DHT22;800;48.824;9.346;2023-03-01T01:08:48;6.10;45.60
1614;DHT22;800;48.824;9.346;2023-03-01T01:11:15;6.10;45.80
1614;DHT22;800;48.824;9.346;2023-03-01T01:13:41;6.10;45.90
1614;DHT22;800;48.824;9.346;2023-03-01T01:16:07;6.10;45.90
1614;DHT22;800;48.824;9.346;2023-03-01T01:18:33;6.10;45.90
1614;DHT22;800;48.824;9.346;2023-03-01T01:21:04;6.10;45.90
1614;DHT22;800;48.824;9.346;2023-03-01T01:23:30;6.10;45.90
1614;DHT22;800;48.824;9.346;2023-03-01T01:25:55;6.00;46.00
1614;DHT22;800;48.824;9.346;2023-03-01T01:28:21;6.00;46.10
1614;DHT22;800;48.824;9.346;2023-03-01T01:30:46;6.10;46.20
1614;DHT22;800;48.824;9.346;2023-03-01T01:33:12;6.00;46.10
1614;DHT22;800;48.824;9.346;2023-03-01T01:35:38;6.00;46.20
1614;DHT22;800;48.824;9.346;2023-03-01T01:38:03;6.00;46.10
1614;DHT22;800;48.824;9.346;2023-03-01T01:40:29;6.00;46.20
1614;DHT22;800;48.824;9.346;2023-03-01T01:42:55;5.90;46.20
1614;DHT22;800;48.824;9.346;2023-03-01T01:45:33;5.90;46.30
1614;DHT22;800;48.824;9.346;2023-03-01T01:48:10;5.90;46.30
1614;DHT22;800;48.824;9.346;2023-03-01T01:50:39;5.90;46.40
1614;DHT22;800;48.824;9.346;2023-03-01T01:53:09;5.70;46.50
1614;DHT22;800;48.824;9.346;2023-03-01T01:55:37;5.60;47.00
1614;DHT22;800;48.824;9.346;2023-03-01T01:58:08;5.20;47.40
1614;DHT22;800;48.824;9.346;2023-03-01T02:00:35;5.00;48.60
1614;DHT22;800;48.824;9.346;2023-03-01T02:03:05;5.10;48.70
1614;DHT22;800;48.824;9.346;2023-03-01T02:05:52;5.20;48.70
1614;DHT22;800;48.824;9.346;2023-03-01T02:08:20;5.30;48.60
1614;DHT22;800;48.824;9.346;2023-03-01T02:10:48;5.20;49.10
1614;DHT22;800;48.824;9.346;2023-03-01T02:13:14;5.30;49.30
1614;DHT22;800;48.824;9.346;2023-03-01T02:15:40;5.40;48.90
1614;DHT22;800;48.824;9.346;2023-03-01T02:18:07;5.60;48.70
1614;DHT22;800;48.824;9.346;2023-03-01T02:23:30;5.70;48.40
1614;DHT22;800;48.824;9.346;2023-03-01T02:26:09;5.80;48.30
1614;DHT22;800;48.824;9.346;2023-03-01T02:28:38;5.80;48.10
1614;DHT22;800;48.824;9.346;2023-03-01T02:31:07;5.90;48.20
1614;DHT22;800;48.824;9.346;2023-03-01T02:33:53;6.00;48.30
1614;DHT22;800;48.824;9.346;2023-03-01T02:36:25;6.00;48.10
1614;DHT22;800;48.824;9.346;2023-03-01T02:38:55;6.10;48.00
1614;DHT22;800;48.824;9.346;2023-03-01T02:41:22;6.10;48.00
1614;DHT22;800;48.824;9.346;2023-03-01T02:43:49;6.20;48.00
1614;DHT22;800;48.824;9.346;2023-03-01T02:46:18;6.20;47.90
1614;DHT22;800;48.824;9.346;2023-03-01T02:48:50;6.20;47.90
1614;DHT22;800;48.824;9.346;2023-03-01T02:56:34;6.30;47.60
1614;DHT22;800;48.824;9.346;2023-03-01T02:59:00;6.40;47.90
1614;DHT22;800;48.824;9.346;2023-03-01T03:01:26;6.40;47.80
1614;DHT22;800;48.824;9.346;2023-03-01T03:04:07;6.40;47.80
1614;DHT22;800;48.824;9.346;2023-03-01T03:06:33;6.40;47.80
1614;DHT22;800;48.824;9.346;2023-03-01T03:08:59;6.50;47.80
1614;DHT22;800;48.824;9.346;2023-03-01T03:11:25;6.50;47.80
1614;DHT22;800;48.824;9.346;2023-03-01T03:13:51;6.50;47.80
1614;DHT22;800;48.824;9.346;2023-03-01T03:16:17;6.50;47.80
1614;DHT22;800;48.824;9.346;2023-03-01T03:18:43;6.60;47.80
1614;DHT22;800;48.824;9.346;2023-03-01T03:21:10;6.60;47.80
1614;DHT22;800;48.824;9.346;2023-03-01T03:23:37;6.60;47.70
1614;DHT22;800;48.824;9.346;2023-03-01T03:26:04;6.60;47.90
1614;DHT22;800;48.824;9.346;2023-03-01T03:28:34;6.60;48.00
1614;DHT22;800;48.824;9.346;2023-03-01T03:31:00;6.60;47.90
1614;DHT22;800;48.824;9.346;2023-03-01T03:33:30;6.70;48.10
1614;DHT22;800;48.824;9.346;2023-03-01T03:35:55;6.70;48.10
1614;DHT22;800;48.824;9.346;2023-03-01T03:38:22;6.70;48.00
1614;DHT22;800;48.824;9.346;2023-03-01T03:40:52;6.70;47.90
1614;DHT22;800;48.824;9.346;2023-03-01T03:43:21;6.70;47.80
1614;DHT22;800;48.824;9.346;2023-03-01T03:45:48;6.70;47.70
1614;DHT22;800;48.824;9.346;2023-03-01T03:48:14;6.80;47.60
1614;DHT22;800;48.824;9.346;2023-03-01T03:50:41;6.80;47.70
1614;DHT22;800;48.824;9.346;2023-03-01T03:53:09;6.70;47.90
1614;DHT22;800;48.824;9.346;2023-03-01T03:55:36;6.70;47.90
1614;DHT22;800;48.824;9.346;2023-03-01T03:58:05;6.80;48.00
1614;DHT22;800;48.824;9.346;2023-03-01T04:00:35;6.80;47.80
1614;DHT22;800;48.824;9.346;2023-03-01T04:03:02;6.80;47.70
1614;DHT22;800;48.824;9.346;2023-03-01T04:05:28;6.80;47.70
1614;DHT22;800;48.824;9.346;2023-03-01T04:07:53;6.80;47.70
1614;DHT22;800;48.824;9.346;2023-03-01T04:10:31;6.90;47.70
1614;DHT22;800;48.824;9.346;2023-03-01T04:12:57;6.70;47.70
1614;DHT22;800;48.824;9.346;2023-03-01T04:15:24;6.40;47.90
1614;DHT22;800;48.824;9.346;2023-03-01T04:17:51;6.10;48.70
1614;DHT22;800;48.824;9.346;2023-03-01T04:20:25;6.30;49.60
1614;DHT22;800;48.824;9.346;2023-03-01T04:23:17;6.00;48.90
1614;DHT22;800;48.824;9.346;2023-03-01T04:25:50;6.10;49.30
1614;DHT22;800;48.824;9.346;2023-03-01T04:28:26;6.00;49.20
1614;DHT22;800;48.824;9.346;2023-03-01T04:30:53;6.20;49.10
1614;DHT22;800;48.824;9.346;2023-03-01T04:33:20;6.40;48.70
1614;DHT22;800;48.824;9.346;2023-03-01T04:35:45;6.40;48.30
1614;DHT22;800;48.824;9.346;2023-03-01T04:38:11;6.50;48.30
1614;DHT22;800;48.824;9.346;2023-03-01T04:40:37;6.60;47.90
1614;DHT22;800;48.824;9.346;2023-03-01T04:43:03;6.80;47.70
1614;DHT22;800;48.824;9.346;2023-03-01T04:45:29;6.80;47.50
1614;DHT22;800;48.824;9.346;2023-03-01T04:47:56;6.90;47.40
1614;DHT22;800;48.824;9.346;2023-03-01T04:50:23;6.80;47.40
1614;DHT22;800;48.824;9.346;2023-03-01T04:52:51;6.80;47.50
1614;DHT22;800;48.824;9.346;2023-03-01T04:55:17;6.90;47.50
1614;DHT22;800;48.824;9.346;2023-03-01T04:57:43;6.80;47.30
1614;DHT22;800;48.824;9.346;2023-03-01T05:00:11;6.80;47.30
1614;DHT22;800;48.824;9.346;2023-03-01T05:02:54;6.90;47.30
1614;DHT22;800;48.824;9.346;2023-03-01T05:05:25;6.90;47.20
1614;DHT22;800;48.824;9.346;2023-03-01T05:07:53;6.80;47.30
1614;DHT22;800;48.824;9.346;2023-03-01T05:10:19;6.90;47.30
1614;DHT22;800;48.824;9.346;2023-03-01T05:12:44;6.90;47.00
1614;DHT22;800;48.824;9.346;2023-03-01T05:15:10;7.00;47.10
1614;DHT22;800;48.824;9.346;2023-03-01T05:17:36;7.00;47.50
1614;DHT22;800;48.824;9.346;2023-03-01T05:20:01;7.00;47.70
1614;DHT22;800;48.824;9.346;2023-03-01T05:22:31;6.90;47.50
1614;DHT22;800;48.824;9.346;2023-03-01T05:24:57;6.90;47.60
1614;DHT22;800;48.824;9.346;2023-03-01T05:27:22;6.90;47.60
1614;DHT22;800;48.824;9.346;2023-03-01T05:29:48;6.90;47.60
1614;DHT22;800;48.824;9.346;2023-03-01T05:32:13;6.90;47.50
1614;DHT22;800;48.824;9.346;2023-03-01T05:34:41;6.80;47.60
1614;DHT22;800;48.824;9.346;2023-03-01T05:37:06;6.80;47.80
1614;DHT22;800;48.824;9.346;2023-03-01T05:39:33;6.80;47.70
1614;DHT22;800;48.824;9.346;2023-03-01T05:42:00;6.80;47.80
1614;DHT22;800;48.824;9.346;2023-03-01T05:44:27;6.80;47.60
1614;DHT22;800;48.824;9.346;2023-03-01T05:46:54;6.80;47.50
1614;DHT22;800;48.824;9.346;2023-03-01T05:49:20;6.90;47.70
1614;DHT22;800;48.824;9.346;2023-03-01T05:51:50;7.00;47.50
1614;DHT22;800;48.824;9.346;2023-03-01T05:54:16;6.90;47.30
1614;DHT22;800;48.824;9.346;2023-03-01T05:56:43;7.00;47.20
1614;DHT22;800;48.824;9.346;2023-03-01T05:59:09;6.90;47.20
1614;DHT22;800;48.824;9.346;2023-03-01T06:01:35;7.00;47.20
1614;DHT22;800;48.824;9.346;2023-03-01T06:04:01;7.00;47.30
1614;DHT22;800;48.824;9.346;2023-03-01T06:06:27;7.00;47.30
1614;DHT22;800;48.824;9.346;2023-03-01T06:08:54;7.10;47.40
1614;DHT22;800;48.824;9.346;2023-03-01T06:11:21;7.10;47.20
1614;DHT22;800;48.824;9.346;2023-03-01T06:13:47;7.20;47.20
1614;DHT22;800;48.824;9.346;2023-03-01T06:16:13;7.20;47.20
1614;DHT22;800;48.824;9.346;2023-03-01T06:18:39;7.20;47.10
1614;DHT22;800;48.824;9.346;2023-03-01T06:21:05;7.30;47.30
1614;DHT22;800;48.824;9.346;2023-03-01T06:23:31;7.40;50.50
1614;DHT22;800;48.824;9.346;2023-03-01T06:25:57;7.80;51.90
1614;DHT22;800;48.824;9.346;2023-03-01T06:28:23;8.00;50.70
1614;DHT22;800;48.824;9.346;2023-03-01T06:30:50;8.30;49.50
1614;DHT22;800;48.824;9.346;2023-03-01T06:33:17;8.40;48.00
1614;DHT22;800;48.824;9.346;2023-03-01T06:35:48;8.60;48.20
1614;DHT22;800;48.824;9.346;2023-03-01T06:38:13;8.70;46.50
1614;DHT22;800;48.824;9.346;2023-03-01T06:40:45;8.70;45.60
1614;DHT22;800;48.824;9.346;2023-03-01T06:43:16;8.60;44.90
1614;DHT22;800;48.824;9.346;2023-03-01T06:45:41;8.70;46.10
1614;DHT22;800;48.824;9.346;2023-03-01T06:48:08;8.80;45.90
1614;DHT22;800;48.824;9.346;2023-03-01T06:50:34;8.80;44.60
1614;DHT22;800;48.824;9.346;2023-03-01T06:53:00;8.70;44.10
1614;DHT22;800;48.824;9.346;2023-03-01T06:55:26;8.80;44.60
1614;DHT22;800;48.824;9.346;2023-03-01T06:57:59;8.90;44.50
1614;DHT22;800;48.824;9.346;2023-03-01T07:00:26;8.90;44.30
1614;DHT22;800;48.824;9.346;2023-03-01T07:02:52;8.90;44.40
1614;DHT22;800;48.824;9.346;2023-03-01T07:05:17;9.20;44.90
1614;DHT22;800;48.824;9.346;2023-03-01T07:07:43;9.30;44.00
1614;DHT22;800;48.824;9.346;2023-03-01T07:10:09;9.50;43.60
1614;DHT22;800;48.824;9.346;2023-03-01T07:12:35;9.60;42.90
1614;DHT22;800;48.824;9.346;2023-03-01T07:15:01;9.60;42.50
1614;DHT22;800;48.824;9.346;2023-03-01T07:17:26;9.50;42.30
1614;DHT22;800;48.824;9.346;2023-03-01T07:19:52;9.50;42.30
1614;DHT22;800;48.824;9.346;2023-03-01T07:22:17;9.60;42.30
1614;DHT22;800;48.824;9.346;2023-03-01T07:24:43;9.60;42.40
1614;DHT22;800;48.824;9.346;2023-03-01T07:27:09;9.50;41.90
1614;DHT22;800;48.824;9.346;2023-03-01T07:29:35;9.50;41.90
1614;DHT22;800;48.824;9.346;2023-03-01T07:32:02;9.60;42.00
1614;DHT22;800;48.824;9.346;2023-03-01T07:34:28;9.60;42.00
1614;DHT22;800;48.824;9.346;2023-03-01T07:36:54;9.60;41.80
1614;DHT22;800;48.824;9.346;2023-03-01T07:39:19;9.70;42.10
1614;DHT22;800;48.824;9.346;2023-03-01T07:41:45;9.90;42.10
1614;DHT22;800;48.824;9.346;2023-03-01T07:44:11;10.20;40.90
1614;DHT22;800;48.824;9.346;2023-03-01T07:46:36;10.50;40.70
1614;DHT22;800;48.824;9.346;2023-03-01T07:49:02;10.70;40.30
1614;DHT22;800;48.824;9.346;2023-03-01T07:51:27;11.00;39.80
1614;DHT22;800;48.824;9.346;2023-03-01T07:53:53;11.10;39.00
1614;DHT22;800;48.824;9.346;2023-03-01T07:56:19;11.20;38.80
1614;DHT22;800;48.824;9.346;2023-03-01T07:58:45;11.30;39.10
1614;DHT22;800;48.824;9.346;2023-03-01T08:01:15;11.30;38.50
1614;DHT22;800;48.824;9.346;2023-03-01T08:03:42;11.30;38.40
1614;DHT22;800;48.824;9.346;2023-03-01T08:06:10;11.30;38.20
1614;DHT22;800;48.824;9.346;2023-03-01T08:08:36;11.30;38.40
1614;DHT22;800;48.824;9.346;2023-03-01T08:11:04;11.10;38.20
1614;DHT22;800;48.824;9.346;2023-03-01T08:13:30;11.10;38.50
1614;DHT22;800;48.824;9.346;2023-03-01T08:16:03;11.10;38.50
1614;DHT22;800;48.824;9.346;2023-03-01T08:18:29;10.90;38.00
1614;DHT22;800;48.824;9.346;2023-03-01T08:20:55;10.70;38.70
1614;DHT22;800;48.824;9.346;2023-03-01T08:23:21;10.70;39.10
1614;DHT22;800;48.824;9.346;2023-03-01T08:25:47;10.70;38.80
1614;DHT22;800;48.824;9.346;2023-03-01T08:28:12;10.70;39.50
1614;DHT22;800;48.824;9.346;2023-03-01T08:30:38;10.90;39.50
1614;DHT22;800;48.824;9.346;2023-03-01T08:33:03;11.00;39.50
1614;DHT22;800;48.824;9.346;2023-03-01T08:35:29;11.00;38.90
1614;DHT22;800;48.824;9.346;2023-03-01T08:37:54;11.20;38.90
1614;DHT22;800;48.824;9.346;2023-03-01T08:40:20;11.30;39.00
1614;DHT22;800;48.824;9.346;2023-03-01T08:42:46;11.30;38.80
1614;DHT22;800;48.824;9.346;2023-03-01T08:45:12;11.20;38.70
1614;DHT22;800;48.824;9.346;2023-03-01T08:47:39;11.20;39.00
1614;DHT22;800;48.824;9.346;2023-03-01T08:50:05;11.20;38.70
1614;DHT22;800;48.824;9.346;2023-03-01T08:52:32;11.20;38.10
1614;DHT22;800;48.824;9.346;2023-03-01T08:54:58;11.10;38.30
1614;DHT22;800;48.824;9.346;2023-03-01T08:57:23;11.00;38.40
1614;DHT22;800;48.824;9.346;2023-03-01T08:59:49;10.90;38.30
1614;DHT22;800;48.824;9.346;2023-03-01T09:02:16;11.00;38.10
1614;DHT22;800;48.824;9.346;2023-03-01T09:04:42;10.80;38.10
1614;DHT22;800;48.824;9.346;2023-03-01T09:07:08;10.50;38.90
1614;DHT22;800;48.824;9.346;2023-03-01T09:09:35;10.30;39.00
1614;DHT22;800;48.824;9.346;2023-03-01T09:12:01;10.40;39.20
1614;DHT22;800;48.824;9.346;2023-03-01T09:14:27;10.40;38.80
1614;DHT22;800;48.824;9.346;2023-03-01T09:16:53;10.50;39.40
1614;DHT22;800;48.824;9.346;2023-03-01T09:19:20;10.70;39.10
1614;DHT22;800;48.824;9.346;2023-03-01T09:21:46;10.70;38.20
1614;DHT22;800;48.824;9.346;2023-03-01T09:24:19;11.00;38.10
1614;DHT22;800;48.824;9.346;2023-03-01T09:26:44;11.30;37.70
1614;DHT22;800;48.824;9.346;2023-03-01T09:29:14;11.30;37.80
1614;DHT22;800;48.824;9.346;2023-03-01T09:31:40;11.10;37.30
1614;DHT22;800;48.824;9.346;2023-03-01T09:34:07;10.90;37.30
1614;DHT22;800;48.824;9.346;2023-03-01T09:36:33;10.80;37.50
1614;DHT22;800;48.824;9.346;2023-03-01T09:39:00;10.90;37.80
1614;DHT22;800;48.824;9.346;2023-03-01T09:44:21;10.80;37.80
1614;DHT22;800;48.824;9.346;2023-03-01T09:46:48;10.70;37.40
1614;DHT22;800;48.824;9.346;2023-03-01T09:49:24;10.70;37.70
1614;DHT22;800;48.824;9.346;2023-03-01T09:54:34;11.00;38.00
1614;DHT22;800;48.824;9.346;2023-03-01T10:00:00;11.30;37.80
1614;DHT22;800;48.824;9.346;2023-03-01T10:02:52;11.50;37.00
1614;DHT22;800;48.824;9.346;2023-03-01T10:10:36;11.90;36.60
1614;DHT22;800;48.824;9.346;2023-03-01T10:13:19;11.60;36.10
1614;DHT22;800;48.824;9.346;2023-03-01T10:16:10;11.60;36.90
1614;DHT22;800;48.824;9.346;2023-03-01T10:18:37;11.70;36.50
1614;DHT22;800;48.824;9.346;2023-03-01T10:21:23;12.10;36.40
1614;DHT22;800;48.824;9.346;2023-03-01T10:23:52;12.10;35.60
1614;DHT22;800;48.824;9.346;2023-03-01T10:34:30;12.50;36.80
1614;DHT22;800;48.824;9.346;2023-03-01T10:37:07;13.00;35.60
1614;DHT22;800;48.824;9.346;2023-03-01T10:39:34;13.20;34.60
1614;DHT22;800;48.824;9.346;2023-03-01T10:42:05;13.30;34.60
1614;DHT22;800;48.824;9.346;2023-03-01T10:44:43;13.10;34.60
1614;DHT22;800;48.824;9.346;2023-03-01T10:47:24;13.40;34.80
1614;DHT22;800;48.824;9.346;2023-03-01T10:49:59;13.50;34.20
1614;DHT22;800;48.824;9.346;2023-03-01T10:52:31;13.90;34.00
1614;DHT22;800;48.824;9.346;2023-03-01T10:55:27;13.60;33.00
1614;DHT22;800;48.824;9.346;2023-03-01T10:58:09;13.70;33.80
1614;DHT22;800;48.824;9.346;2023-03-01T11:00:54;14.10;33.80
1614;DHT22;800;48.824;9.346;2023-03-01T11:03:35;14.30;33.00
1614;DHT22;800;48.824;9.346;2023-03-01T11:08:56;14.70;32.50
1614;DHT22;800;48.824;9.346;2023-03-01T11:11:33;14.80;32.30
1614;DHT22;800;48.824;9.346;2023-03-01T11:14:13;14.90;32.20
1614;DHT22;800;48.824;9.346;2023-03-01T11:16:43;14.60;32.30
1614;DHT22;800;48.824;9.346;2023-03-01T11:21:38;14.70;32.30
1614;DHT22;800;48.824;9.346;2023-03-01T11:24:08;14.90;31.90
1614;DHT22;800;48.824;9.346;2023-03-01T11:26:41;15.10;32.20
1614;DHT22;800;48.824;9.346;2023-03-01T11:29:41;15.20;32.00
1614;DHT22;800;48.824;9.346;2023-03-01T11:32:11;15.20;31.50
1614;DHT22;800;48.824;9.346;2023-03-01T11:37:32;15.40;32.00
1614;DHT22;800;48.824;9.346;2023-03-01T11:39:59;15.50;31.20
1614;DHT22;800;48.824;9.346;2023-03-01T11:42:50;15.40;31.40
1614;DHT22;800;48.824;9.346;2023-03-01T11:45:16;15.60;32.40
1614;DHT22;800;48.824;9.346;2023-03-01T11:47:56;15.80;32.10
1614;DHT22;800;48.824;9.346;2023-03-01T11:56:13;15.30;31.70
1614;DHT22;800;48.824;9.346;2023-03-01T11:58:53;15.10;32.60
1614;DHT22;800;48.824;9.346;2023-03-01T12:20:34;15.30;32.70
1614;DHT22;800;48.824;9.346;2023-03-01T12:25:39;15.70;31.60
1614;DHT22;800;48.824;9.346;2023-03-01T12:31:49;15.90;30.40
1614;DHT22;800;48.824;9.346;2023-03-01T12:43:07;15.80;31.40
1614;DHT22;800;48.824;9.346;2023-03-01T12:51:22;16.20;30.40
1614;DHT22;800;48.824;9.346;2023-03-01T12:53:50;16.10;30.30
1614;DHT22;800;48.824;9.346;2023-03-01T12:56:22;16.10;30.50
1614;DHT22;800;48.824;9.346;2023-03-01T13:04:54;16.60;31.50
1614;DHT22;800;48.824;9.346;2023-03-01T13:07:35;16.80;31.60
1614;DHT22;800;48.824;9.346;2023-03-01T13:17:51;17.70;30.00
1614;DHT22;800;48.824;9.346;2023-03-01T13:20:19;17.80;29.50
1614;DHT22;800;48.824;9.346;2023-03-01T13:22:47;17.90;29.90
1614;DHT22;800;48.824;9.346;2023-03-01T13:25:20;18.00;31.60
1614;DHT22;800;48.824;9.346;2023-03-01T13:27:46;18.50;30.80
1614;DHT22;800;48.824;9.346;2023-03-01T13:35:52;18.20;30.00
1614;DHT22;800;48.824;9.346;2023-03-01T13:38:46;18.30;30.60
1614;DHT22;800;48.824;9.346;2023-03-01T13:41:17;18.20;30.90
1614;DHT22;800;48.824;9.346;2023-03-01T13:46:38;18.30;30.60
1614;DHT22;800;48.824;9.346;2023-03-01T13:49:05;18.30;30.10
1614;DHT22;800;48.824;9.346;2023-03-01T13:51:36;18.40;29.60
1614;DHT22;800;48.824;9.346;2023-03-01T13:54:02;18.20;29.10
1614;DHT22;800;48.824;9.346;2023-03-01T13:56:35;18.10;29.40
1614;DHT22;800;48.824;9.346;2023-03-01T13:59:02;18.00;30.00
1614;DHT22;800;48.824;9.346;2023-03-01T14:01:32;17.90;30.00
1614;DHT22;800;48.824;9.346;2023-03-01T14:03:58;18.00;30.40
1614;DHT22;800;48.824;9.346;2023-03-01T14:06:29;18.30;29.90
1614;DHT22;800;48.824;9.346;2023-03-01T14:09:26;18.50;29.70
1614;DHT22;800;48.824;9.346;2023-03-01T14:14:46;18.40;30.60
1614;DHT22;800;48.824;9.346;2023-03-01T14:19:59;18.60;30.00
1614;DHT22;800;48.824;9.346;2023-03-01T14:22:30;18.30;29.40
1614;DHT22;800;48.824;9.346;2023-03-01T14:25:20;17.80;29.70
1614;DHT22;800;48.824;9.346;2023-03-01T14:28:36;17.90;30.70
1614;DHT22;800;48.824;9.346;2023-03-01T14:30:41;17.90;29.50
1614;DHT22;800;48.824;9.346;2023-03-01T14:33:26;17.70;29.70
1614;DHT22;800;48.824;9.346;2023-03-01T14:36:00;17.50;30.00
1614;DHT22;800;48.824;9.346;2023-03-01T14:41:09;17.80;30.50
1614;DHT22;800;48.824;9.346;2023-03-01T14:43:38;17.50;29.80
1614;DHT22;800;48.824;9.346;2023-03-01T14:46:06;17.00;30.20
1614;DHT22;800;48.824;9.346;2023-03-01T14:48:37;16.50;30.50
1614;DHT22;800;48.824;9.346;2023-03-01T14:51:04;16.20;30.90
1614;DHT22;800;48.824;9.346;2023-03-01T14:53:30;15.90;31.00
1614;DHT22;800;48.824;9.346;2023-03-01T14:56:00;15.60;31.40
1614;DHT22;800;48.824;9.346;2023-03-01T14:58:32;15.50;32.50
1614;DHT22;800;48.824;9.346;2023-03-01T15:01:01;15.40;32.00
1614;DHT22;800;48.824;9.346;2023-03-01T15:03:36;15.50;32.20
1614;DHT22;800;48.824;9.346;2023-03-01T15:06:05;15.20;32.10
1614;DHT22;800;48.824;9.346;2023-03-01T15:08:31;15.10;32.40
1614;DHT22;800;48.824;9.346;2023-03-01T15:11:17;14.40;32.90
1614;DHT22;800;48.824;9.346;2023-03-01T15:13:43;14.50;33.80
1614;DHT22;800;48.824;9.346;2023-03-01T15:16:27;14.80;33.40
1614;DHT22;800;48.824;9.346;2023-03-01T15:19:00;14.90;32.90
1614;DHT22;800;48.824;9.346;2023-03-01T15:21:48;15.00;32.70
1614;DHT22;800;48.824;9.346;2023-03-01T15:24:22;15.30;33.10
1614;DHT22;800;48.824;9.346;2023-03-01T15:27:02;15.20;32.80
1614;DHT22;800;48.824;9.346;2023-03-01T15:29:33;15.10;32.70
1614;DHT22;800;48.824;9.346;2023-03-01T15:32:29;15.20;32.90
1614;DHT22;800;48.824;9.346;2023-03-01T15:34:52;15.20;33.30
1614;DHT22;800;48.824;9.346;2023-03-01T15:40:28;14.90;33.10
1614;DHT22;800;48.824;9.346;2023-03-01T15:43:14;14.70;33.10
1614;DHT22;800;48.824;9.346;2023-03-01T15:45:58;14.30;33.40
1614;DHT22;800;48.824;9.346;2023-03-01T15:48:24;14.30;33.80
1614;DHT22;800;48.824;9.346;2023-03-01T15:50:58;14.20;33.50
1614;DHT22;800;48.824;9.346;2023-03-01T15:53:25;14.40;33.60
1614;DHT22;800;48.824;9.346;2023-03-01T15:55:51;14.40;33.40
1614;DHT22;800;48.824;9.346;2023-03-01T15:58:19;14.20;33.20
1614;DHT22;800;48.824;9.346;2023-03-01T16:00:46;14.30;33.50
1614;DHT22;800;48.824;9.346;2023-03-01T16:03:14;14.40;33.80
1614;DHT22;800;48.824;9.346;2023-03-01T16:05:47;14.40;33.40
1614;DHT22;800;48.824;9.346;2023-03-01T16:08:12;14.40;33.70
1614;DHT22;800;48.824;9.346;2023-03-01T16:10:38;14.50;33.10
1614;DHT22;800;48.824;9.346;2023-03-01T16:13:05;14.60;33.20
1614;DHT22;800;48.824;9.346;2023-03-01T16:15:33;14.60;33.10
1614;DHT22;800;48.824;9.346;2023-03-01T16:17:59;14.50;32.90
1614;DHT22;800;48.824;9.346;2023-03-01T16:20:26;14.50;33.00
1614;DHT22;800;48.824;9.346;2023-03-01T16:22:52;14.50;33.30
1614;DHT22;800;48.824;9.346;2023-03-01T16:25:19;14.40;33.20
1614;DHT22;800;48.824;9.346;2023-03-01T16:27:47;14.50;33.10
1614;DHT22;800;48.824;9.346;2023-03-01T16:32:40;14.30;33.50
1614;DHT22;800;48.824;9.346;2023-03-01T16:35:07;14.50;33.40
1614;DHT22;800;48.824;9.346;2023-03-01T16:37:33;14.60;33.20
1614;DHT22;800;48.824;9.346;2023-03-01T16:39:59;14.60;32.80
1614;DHT22;800;48.824;9.346;2023-03-01T16:42:25;14.70;32.70
1614;DHT22;800;48.824;9.346;2023-03-01T16:44:55;14.70;32.50
1614;DHT22;800;48.824;9.346;2023-03-01T16:47:21;14.80;32.70
1614;DHT22;800;48.824;9.346;2023-03-01T16:49:47;14.50;32.60
1614;DHT22;800;48.824;9.346;2023-03-01T16:52:12;14.50;33.00
1614;DHT22;800;48.824;9.346;2023-03-01T16:54:38;14.50;33.00
1614;DHT22;800;48.824;9.346;2023-03-01T16:57:04;14.40;33.10
1614;DHT22;800;48.824;9.346;2023-03-01T16:59:30;14.50;33.20
1614;DHT22;800;48.824;9.346;2023-03-01T17:01:55;14.50;33.20
1614;DHT22;800;48.824;9.346;2023-03-01T17:04:21;14.50;33.10
1614;DHT22;800;48.824;9.346;2023-03-01T17:06:46;14.60;33.10
1614;DHT22;800;48.824;9.346;2023-03-01T17:09:13;14.50;33.00
1614;DHT22;800;48.824;9.346;2023-03-01T17:11:39;14.40;33.10
1614;DHT22;800;48.824;9.346;2023-03-01T17:14:05;14.40;33.10
1614;DHT22;800;48.824;9.346;2023-03-01T17:16:31;14.40;33.20
1614;DHT22;800;48.824;9.346;2023-03-01T17:18:57;14.40;33.20
1614;DHT22;800;48.824;9.346;2023-03-01T17:21:23;14.40;33.30
1614;DHT22;800;48.824;9.346;2023-03-01T17:23:48;14.40;33.30
1614;DHT22;800;48.824;9.346;2023-03-01T17:26:15;14.40;33.30
1614;DHT22;800;48.824;9.346;2023-03-01T17:28:40;14.40;33.20
1614;DHT22;800;48.824;9.346;2023-03-01T17:31:08;14.30;33.80
1614;DHT22;800;48.824;9.346;2023-03-01T17:33:34;14.20;33.30
1614;DHT22;800;48.824;9.346;2023-03-01T17:36:00;14.20;33.40
1614;DHT22;800;48.824;9.346;2023-03-01T17:38:26;14.10;34.10
1614;DHT22;800;48.824;9.346;2023-03-01T17:40:52;14.00;33.50
1614;DHT22;800;48.824;9.346;2023-03-01T17:43:18;13.90;33.70
1614;DHT22;800;48.824;9.346;2023-03-01T17:45:44;13.90;33.90
1614;DHT22;800;48.824;9.346;2023-03-01T17:48:14;13.80;34.00
1614;DHT22;800;48.824;9.346;2023-03-01T17:50:40;13.70;34.20
1614;DHT22;800;48.824;9.346;2023-03-01T17:53:08;13.70;34.30
1614;DHT22;800;48.824;9.346;2023-03-01T17:55:36;13.60;34.50
1614;DHT22;800;48.824;9.346;2023-03-01T17:58:02;13.50;34.70
1614;DHT22;800;48.824;9.346;2023-03-01T18:00:28;13.40;34.80
1614;DHT22;800;48.824;9.346;2023-03-01T18:02:54;13.30;34.90
1614;DHT22;800;48.824;9.346;2023-03-01T18:05:19;13.30;35.20
1614;DHT22;800;48.824;9.346;2023-03-01T18:07:45;13.20;35.20
1614;DHT22;800;48.824;9.346;2023-03-01T18:10:11;13.10;35.30
1614;DHT22;800;48.824;9.346;2023-03-01T18:12:37;13.10;35.50
1614;DHT22;800;48.824;9.346;2023-03-01T18:15:06;13.00;35.70
1614;DHT22;800;48.824;9.346;2023-03-01T18:17:32;12.90;35.80
1614;DHT22;800;48.824;9.346;2023-03-01T18:19:57;12.80;35.90
1614;DHT22;800;48.824;9.346;2023-03-01T18:22:23;12.80;36.00
1614;DHT22;800;48.824;9.346;2023-03-01T18:24:49;12.70;36.20
1614;DHT22;800;48.824;9.346;2023-03-01T18:27:15;12.60;36.20
1614;DHT22;800;48.824;9.346;2023-03-01T18:29:40;12.60;36.40
1614;DHT22;800;48.824;9.346;2023-03-01T18:32:06;12.50;36.50
1614;DHT22;800;48.824;9.346;2023-03-01T18:34:32;12.40;36.70
1614;DHT22;800;48.824;9.346;2023-03-01T18:36:59;12.40;36.80